createdAt,value
2023-02-22T00:00:59.969Z,2.70
2023-02-22T00:03:32.455Z,2.95
2023-02-22T00:06:02.741Z,2.50
2023-02-22T00:08:31.783Z,2.55
2023-02-22T00:11:00.221Z,2.67
2023-02-22T00:13:29.697Z,2.90
2023-02-22T00:15:58.006Z,2.95
2023-02-22T00:18:28.010Z,2.60
2023-02-22T00:21:00.000Z,2.53
2023-02-22T00:23:29.698Z,2.50
2023-02-22T00:25:58.587Z,2.78
2023-02-22T00:28:26.639Z,2.80
2023-02-22T00:30:55.398Z,2.28
2023-02-22T00:33:23.838Z,1.93
2023-02-22T00:35:52.188Z,2.13
2023-02-22T00:38:21.500Z,2.15
2023-02-22T00:40:49.716Z,1.88
2023-02-22T00:43:17.832Z,1.88
2023-02-22T00:45:46.074Z,1.80
2023-02-22T00:48:14.151Z,1.55
2023-02-22T00:50:42.482Z,1.92
2023-02-22T00:53:11.560Z,1.98
2023-02-22T00:55:41.124Z,1.80
2023-02-22T00:58:09.060Z,2.00
2023-02-22T01:00:38.298Z,1.77
2023-02-22T01:03:06.533Z,1.52
2023-02-22T01:05:35.054Z,1.80
2023-02-22T01:08:03.720Z,1.95
2023-02-22T01:10:32.426Z,1.90
2023-02-22T01:13:02.036Z,1.90
2023-02-22T01:15:31.034Z,1.50
2023-02-22T01:17:59.698Z,1.95
2023-02-22T01:20:28.367Z,2.03
2023-02-22T01:22:57.262Z,1.92
2023-02-22T01:25:26.191Z,1.85
2023-02-22T01:27:54.933Z,2.40
2023-02-22T01:30:25.733Z,2.05
2023-02-22T01:32:53.701Z,3.42
2023-02-22T01:35:23.236Z,2.60
2023-02-22T01:37:51.270Z,5.18
2023-02-22T01:40:21.835Z,3.45
2023-02-22T01:42:52.350Z,4.40
2023-02-22T01:45:41.272Z,4.25
2023-02-22T01:48:12.864Z,3.20
2023-02-22T01:50:43.061Z,2.42
2023-02-22T01:53:12.681Z,2.15
2023-02-22T01:55:41.188Z,2.42
2023-02-22T01:58:09.395Z,2.00
2023-02-22T02:00:40.015Z,2.53
2023-02-22T02:03:11.334Z,2.78
2023-02-22T02:05:41.927Z,2.28
2023-02-22T02:08:14.652Z,2.50
2023-02-22T02:10:43.078Z,2.38
2023-02-22T02:13:13.750Z,2.30
2023-02-22T02:15:41.924Z,2.55
2023-02-22T02:18:10.983Z,2.35
2023-02-22T02:20:45.448Z,2.35
2023-02-22T02:23:25.028Z,1.52
2023-02-22T02:26:09.252Z,2.22
2023-02-22T02:29:03.726Z,2.20
2023-02-22T02:31:45.051Z,2.20
2023-02-22T02:34:20.489Z,2.55
2023-02-22T02:36:51.539Z,2.65
2023-02-22T02:39:21.732Z,2.10
2023-02-22T02:41:52.151Z,2.83
2023-02-22T02:44:25.082Z,2.47
2023-02-22T02:46:56.276Z,2.22
2023-02-22T02:49:28.656Z,2.40
2023-02-22T02:51:57.590Z,2.67
2023-02-22T02:54:26.016Z,2.55
2023-02-22T02:56:54.363Z,2.20
2023-02-22T02:59:26.832Z,2.60
2023-02-22T03:02:03.321Z,2.15
2023-02-22T03:04:42.600Z,2.38
2023-02-22T03:07:21.744Z,2.85
2023-02-22T03:09:58.523Z,2.75
2023-02-22T03:12:34.256Z,2.92
2023-02-22T03:15:07.808Z,2.95
2023-02-22T03:17:41.516Z,2.90
2023-02-22T03:20:13.828Z,2.78
2023-02-22T03:22:44.246Z,2.45
2023-02-22T03:25:15.647Z,2.80
2023-02-22T03:27:45.034Z,3.10
2023-02-22T03:34:06.425Z,2.60
2023-02-22T03:36:39.115Z,2.13
2023-02-22T03:39:08.792Z,2.13
2023-02-22T03:41:39.826Z,1.88
2023-02-22T03:44:09.792Z,1.98
2023-02-22T03:46:40.163Z,1.92
2023-02-22T03:49:11.861Z,1.95
2023-02-22T03:51:41.729Z,2.22
2023-02-22T03:54:16.326Z,1.77
2023-02-22T03:56:47.540Z,2.03
2023-02-22T03:59:15.947Z,2.25
2023-02-22T04:01:44.004Z,1.80
2023-02-22T04:04:12.324Z,1.98
2023-02-22T04:06:41.854Z,1.80
2023-02-22T04:09:10.100Z,2.30
2023-02-22T04:11:38.313Z,2.05
2023-02-22T04:14:06.520Z,2.13
2023-02-22T04:16:34.419Z,2.47
2023-02-22T04:19:06.489Z,2.55
2023-02-22T04:21:34.394Z,2.80
2023-02-22T04:24:04.018Z,2.90
2023-02-22T04:26:31.911Z,3.35
2023-02-22T04:29:00.429Z,2.75
2023-02-22T04:31:28.637Z,3.33
2023-02-22T04:33:56.850Z,3.30
2023-02-22T04:36:25.261Z,2.53
2023-02-22T04:38:53.558Z,2.67
2023-02-22T04:41:25.256Z,3.15
2023-02-22T04:43:54.127Z,2.88
2023-02-22T04:46:22.212Z,3.35
2023-02-22T04:48:50.424Z,3.05
2023-02-22T04:51:20.042Z,3.10
2023-02-22T04:53:48.233Z,4.13
2023-02-22T04:56:18.439Z,4.20
2023-02-22T04:58:48.083Z,4.55
2023-02-22T05:01:16.608Z,5.47
2023-02-22T05:03:45.658Z,4.60
2023-02-22T05:06:13.631Z,4.32
2023-02-22T05:08:43.866Z,3.97
2023-02-22T05:11:11.844Z,4.15
2023-02-22T05:13:40.094Z,3.95
2023-02-22T05:16:09.607Z,4.22
2023-02-22T05:18:37.810Z,3.80
2023-02-22T05:21:07.135Z,3.33
2023-02-22T05:23:35.799Z,3.90
2023-02-22T05:26:03.686Z,4.22
2023-02-22T05:28:32.401Z,4.13
2023-02-22T05:31:01.085Z,3.88
2023-02-22T05:33:30.677Z,4.45
2023-02-22T05:35:58.639Z,4.70
2023-02-22T05:38:27.985Z,3.47
2023-02-22T05:40:57.886Z,3.58
2023-02-22T05:43:26.127Z,5.60
2023-02-22T05:45:54.200Z,4.20
2023-02-22T05:48:22.799Z,4.40
2023-02-22T05:50:52.103Z,4.38
2023-02-22T05:53:20.449Z,4.20
2023-02-22T05:55:48.364Z,4.20
2023-02-22T05:58:16.805Z,4.68
2023-02-22T06:00:44.834Z,4.78
2023-02-22T06:03:13.682Z,4.70
2023-02-22T06:05:42.004Z,4.93
2023-02-22T06:08:11.645Z,5.20
2023-02-22T06:10:40.205Z,5.13
2023-02-22T06:13:11.561Z,4.85
2023-02-22T06:15:39.460Z,5.55
2023-02-22T06:18:07.738Z,5.68
2023-02-22T06:20:35.674Z,4.95
2023-02-22T06:23:03.931Z,4.78
2023-02-22T06:25:33.522Z,4.85
2023-02-22T06:28:02.001Z,6.47
2023-02-22T06:30:30.462Z,7.38
2023-02-22T06:32:58.716Z,6.00
2023-02-22T06:35:27.010Z,6.10
2023-02-22T06:37:55.412Z,5.67
2023-02-22T06:40:23.351Z,5.68
2023-02-22T06:42:53.723Z,6.17
2023-02-22T06:45:22.162Z,6.28
2023-02-22T06:47:50.650Z,6.20
2023-02-22T06:50:20.153Z,6.05
2023-02-22T06:52:48.956Z,7.65
2023-02-22T06:55:22.301Z,5.77
2023-02-22T06:57:51.080Z,4.78
2023-02-22T07:00:21.261Z,4.30
2023-02-22T07:02:49.506Z,3.60
2023-02-22T07:05:18.653Z,3.42
2023-02-22T07:07:46.583Z,3.22
2023-02-22T07:10:18.585Z,3.55
2023-02-22T07:12:46.744Z,2.45
2023-02-22T07:15:18.120Z,2.97
2023-02-22T07:17:47.433Z,3.92
2023-02-22T07:20:15.622Z,6.78
2023-02-22T07:22:43.544Z,5.75
2023-02-22T07:25:12.608Z,6.18
2023-02-22T07:27:41.567Z,3.47
2023-02-22T07:30:17.155Z,3.55
2023-02-22T07:32:45.467Z,3.00
2023-02-22T07:35:18.941Z,2.75
2023-02-22T07:37:48.291Z,2.65
2023-02-22T07:40:16.832Z,3.00
2023-02-22T07:42:54.768Z,3.90
2023-02-22T07:45:25.790Z,4.95
2023-02-22T07:47:53.921Z,5.75
2023-02-22T07:50:24.690Z,6.82
2023-02-22T07:52:55.290Z,4.40
2023-02-22T07:55:24.287Z,3.85
2023-02-22T07:57:52.911Z,3.75
2023-02-22T08:00:23.876Z,3.75
2023-02-22T08:02:51.997Z,3.92
2023-02-22T08:05:20.737Z,4.18
2023-02-22T08:07:50.035Z,4.75
2023-02-22T08:10:19.231Z,5.03
2023-02-22T08:12:47.168Z,4.38
2023-02-22T08:15:17.330Z,4.38
2023-02-22T08:17:45.222Z,4.25
2023-02-22T08:20:13.561Z,4.63
2023-02-22T08:22:46.685Z,4.28
2023-02-22T08:25:17.033Z,7.68
2023-02-22T08:27:45.557Z,4.53
2023-02-22T08:30:15.752Z,4.43
2023-02-22T08:32:44.297Z,3.97
2023-02-22T08:35:14.604Z,5.13
2023-02-22T08:37:43.510Z,5.55
2023-02-22T08:40:14.927Z,5.25
2023-02-22T08:42:44.382Z,5.47
2023-02-22T08:45:13.433Z,4.50
2023-02-22T08:47:41.649Z,4.45
2023-02-22T08:50:10.803Z,4.47
2023-02-22T08:52:38.770Z,3.83
2023-02-22T08:55:07.657Z,3.40
2023-02-22T08:57:35.548Z,4.30
2023-02-22T09:00:05.659Z,3.58
2023-02-22T09:02:33.548Z,3.20
2023-02-22T09:05:01.897Z,3.45
2023-02-22T09:07:30.125Z,3.50
2023-02-22T09:09:58.320Z,2.83
2023-02-22T09:12:26.376Z,2.80
2023-02-22T09:14:54.577Z,2.67
2023-02-22T09:17:23.951Z,2.38
2023-02-22T09:19:52.280Z,2.63
2023-02-22T09:22:20.204Z,2.03
2023-02-22T09:24:48.404Z,2.30
2023-02-22T09:27:20.166Z,2.72
2023-02-22T09:29:49.672Z,3.30
2023-02-22T09:32:18.703Z,2.63
2023-02-22T09:37:17.807Z,3.15
2023-02-22T09:39:46.345Z,3.08
2023-02-22T09:42:17.381Z,3.90
2023-02-22T09:44:49.270Z,3.58
2023-02-22T09:47:20.097Z,4.10
2023-02-22T09:49:57.480Z,4.10
2023-02-22T09:52:31.401Z,4.13
2023-02-22T09:55:10.441Z,3.63
2023-02-22T09:57:43.649Z,3.58
2023-02-22T10:00:17.026Z,3.58
2023-02-22T10:02:48.353Z,3.83
2023-02-22T10:05:19.766Z,3.25
2023-02-22T10:07:54.483Z,3.15
2023-02-22T10:10:24.722Z,3.28
2023-02-22T10:15:31.453Z,4.28
2023-02-22T10:18:05.141Z,3.67
2023-02-22T10:20:41.068Z,3.15
2023-02-22T10:23:16.352Z,3.45
2023-02-22T10:25:45.327Z,3.03
2023-02-22T10:28:16.942Z,3.45
2023-02-22T10:30:49.571Z,2.58
2023-02-22T10:33:20.010Z,2.63
2023-02-22T10:35:48.661Z,1.98
2023-02-22T10:38:20.505Z,2.60
2023-02-22T10:40:51.467Z,2.78
2023-02-22T10:43:20.040Z,2.05
2023-02-22T10:45:48.338Z,2.83
2023-02-22T10:48:19.715Z,2.70
2023-02-22T10:50:48.763Z,2.33
2023-02-22T10:53:16.642Z,2.33
2023-02-22T10:56:03.490Z,2.20
2023-02-22T10:58:40.793Z,2.33
2023-02-22T11:01:19.571Z,2.50
2023-02-22T11:03:57.094Z,2.30
2023-02-22T11:06:27.037Z,2.25
2023-02-22T11:09:05.499Z,2.17
2023-02-22T11:11:34.157Z,1.95
2023-02-22T11:14:06.776Z,1.85
2023-02-22T11:16:38.506Z,1.80
2023-02-22T11:19:11.997Z,1.58
2023-02-22T11:21:40.895Z,1.88
2023-02-22T11:24:10.421Z,1.90
2023-02-22T11:26:41.282Z,2.25
2023-02-22T11:29:15.633Z,1.67
2023-02-22T11:31:44.814Z,2.33
2023-02-22T11:34:27.024Z,2.72
2023-02-22T11:36:55.228Z,2.20
2023-02-22T11:39:24.522Z,2.53
2023-02-22T11:41:52.866Z,2.45
2023-02-22T11:44:26.654Z,2.90
2023-02-22T11:46:57.168Z,3.00
2023-02-22T11:49:26.232Z,3.53
2023-02-22T11:52:03.353Z,2.90
2023-02-22T11:54:57.960Z,3.10
2023-02-22T11:57:46.549Z,2.90
2023-02-22T12:00:24.925Z,2.88
2023-02-22T12:02:58.501Z,4.18
2023-02-22T12:05:37.329Z,4.40
2023-02-22T12:08:19.632Z,5.65
2023-02-22T12:10:57.351Z,4.55
2023-02-22T12:13:36.804Z,3.28
2023-02-22T12:16:13.126Z,3.47
2023-02-22T12:18:47.966Z,3.75
2023-02-22T12:21:18.415Z,3.42
2023-02-22T12:23:50.722Z,3.20
2023-02-22T12:26:22.826Z,3.03
2023-02-22T12:28:59.295Z,3.88
2023-02-22T12:31:33.894Z,3.95
2023-02-22T12:34:07.783Z,3.58
2023-02-22T12:36:39.486Z,3.30
2023-02-22T12:39:21.984Z,4.20
2023-02-22T12:41:52.899Z,4.25
2023-02-22T12:44:23.197Z,2.95
2023-02-22T12:46:54.407Z,2.70
2023-02-22T12:49:28.196Z,2.13
2023-02-22T12:52:01.468Z,2.70
2023-02-22T12:54:42.496Z,3.03
2023-02-22T12:57:12.964Z,12.43
2023-02-22T12:59:45.948Z,5.25
2023-02-22T13:02:18.845Z,4.75
2023-02-22T13:04:47.523Z,6.07
2023-02-22T13:07:26.833Z,8.40
2023-02-22T13:10:09.006Z,3.72
2023-02-22T13:12:42.601Z,2.70
2023-02-22T13:15:15.792Z,2.28
2023-02-22T13:17:49.916Z,2.58
2023-02-22T13:20:22.429Z,2.25
2023-02-22T13:22:55.715Z,2.40
2023-02-22T13:25:27.032Z,14.48
2023-02-22T13:27:56.943Z,7.75
2023-02-22T13:30:28.636Z,8.20
2023-02-22T13:33:14.834Z,5.97
2023-02-22T13:35:53.909Z,3.22
2023-02-22T13:38:36.567Z,2.60
2023-02-22T13:41:31.842Z,4.10
2023-02-22T13:44:14.484Z,2.10
2023-02-22T13:46:55.073Z,2.85
2023-02-22T13:49:39.762Z,3.15
2023-02-22T13:52:12.194Z,3.90
2023-02-22T13:54:43.323Z,2.80
2023-02-22T13:57:19.187Z,2.08
2023-02-22T13:59:47.535Z,2.42
2023-02-22T14:02:30.713Z,2.35
2023-02-22T14:04:58.988Z,2.72
2023-02-22T14:07:58.112Z,1.88
2023-02-22T14:10:41.234Z,1.70
2023-02-22T14:13:11.480Z,2.67
2023-02-22T14:16:04.608Z,3.00
2023-02-22T14:18:37.295Z,1.80
2023-02-22T14:21:07.388Z,2.25
2023-02-22T14:23:36.501Z,2.47
2023-02-22T14:26:11.825Z,2.22
2023-02-22T14:28:43.028Z,2.30
2023-02-22T14:31:25.537Z,2.38
2023-02-22T14:34:14.910Z,1.85
2023-02-22T14:36:46.038Z,1.98
2023-02-22T14:39:17.357Z,1.60
2023-02-22T14:41:53.340Z,2.30
2023-02-22T14:44:25.161Z,2.22
2023-02-22T14:46:55.243Z,2.03
2023-02-22T14:49:28.528Z,2.30
2023-02-22T14:51:59.342Z,2.38
2023-02-22T14:54:30.202Z,3.25
2023-02-22T14:57:14.862Z,2.92
2023-02-22T14:59:51.869Z,5.75
2023-02-22T15:02:21.968Z,3.65
2023-02-22T15:04:56.663Z,5.30
2023-02-22T15:07:27.846Z,4.22
2023-02-22T15:10:17.710Z,3.45
2023-02-22T15:12:52.462Z,3.50
2023-02-22T15:15:22.321Z,5.40
2023-02-22T15:17:56.920Z,6.72
2023-02-22T15:20:26.906Z,5.07
2023-02-22T15:23:00.069Z,4.90
2023-02-22T15:25:30.755Z,5.32
2023-02-22T15:28:02.879Z,6.50
2023-02-22T15:30:34.149Z,5.82
2023-02-22T15:33:12.337Z,9.75
2023-02-22T15:35:42.085Z,15.88
2023-02-22T15:38:20.192Z,16.52
2023-02-22T15:40:50.804Z,7.78
2023-02-22T15:43:20.106Z,5.95
2023-02-22T15:45:51.150Z,6.20
2023-02-22T15:48:19.467Z,7.47
2023-02-22T15:51:09.223Z,6.90
2023-02-22T15:53:43.205Z,5.10
2023-02-22T15:56:14.646Z,5.18
2023-02-22T15:58:43.419Z,5.10
2023-02-22T16:01:14.356Z,5.00
2023-02-22T16:03:47.206Z,6.70
2023-02-22T16:06:28.983Z,7.45
2023-02-22T16:08:57.984Z,17.50
2023-02-22T16:11:31.185Z,9.13
2023-02-22T16:14:02.112Z,7.93
2023-02-22T16:16:32.464Z,6.40
2023-02-22T16:19:19.453Z,5.22
2023-02-22T16:21:58.396Z,6.13
2023-02-22T16:24:27.473Z,6.00
2023-02-22T16:27:17.385Z,7.00
2023-02-22T16:29:45.590Z,6.30
2023-02-22T16:32:15.560Z,6.73
2023-02-22T16:34:43.614Z,6.25
2023-02-22T16:37:23.688Z,7.68
2023-02-22T16:39:52.442Z,8.25
2023-02-22T16:42:24.371Z,9.15
2023-02-22T16:44:53.224Z,8.35
2023-02-22T16:47:22.361Z,7.13
2023-02-22T16:49:52.861Z,7.78
2023-02-22T16:52:22.669Z,8.48
2023-02-22T16:54:53.133Z,8.15
2023-02-22T16:57:22.859Z,8.20
2023-02-22T17:02:20.976Z,5.80
2023-02-22T17:04:49.523Z,5.25
2023-02-22T17:07:24.153Z,6.53
2023-02-22T17:09:52.421Z,6.80
2023-02-22T17:12:20.741Z,7.18
2023-02-22T17:14:49.018Z,7.07
2023-02-22T17:17:17.717Z,6.55
2023-02-22T17:19:45.656Z,7.10
2023-02-22T17:22:18.076Z,8.05
2023-02-22T17:24:48.131Z,7.47
2023-02-22T17:27:16.356Z,6.55
2023-02-22T17:29:45.139Z,6.57
2023-02-22T17:32:14.111Z,6.93
2023-02-22T17:34:42.180Z,7.55
2023-02-22T17:37:10.574Z,5.82
2023-02-22T17:39:38.755Z,6.78
2023-02-22T17:42:08.751Z,6.60
2023-02-22T17:44:36.760Z,10.70
2023-02-22T17:47:06.282Z,9.70
2023-02-22T17:49:34.187Z,13.05
2023-02-22T17:52:08.515Z,11.43
2023-02-22T17:54:36.489Z,13.57
2023-02-22T17:57:04.768Z,7.47
2023-02-22T17:59:34.445Z,7.10
2023-02-22T18:02:03.429Z,10.40
2023-02-22T18:04:33.515Z,8.32
2023-02-22T18:07:01.797Z,5.93
2023-02-22T18:09:29.851Z,10.00
2023-02-22T18:11:58.124Z,7.20
2023-02-22T18:14:26.101Z,7.10
2023-02-22T18:16:55.657Z,7.47
2023-02-22T18:19:23.568Z,7.72
2023-02-22T18:21:53.664Z,8.88
2023-02-22T18:24:21.773Z,9.15
2023-02-22T18:26:50.742Z,10.30
2023-02-22T18:29:18.729Z,7.38
2023-02-22T18:31:47.010Z,7.10
2023-02-22T18:34:19.442Z,7.32
2023-02-22T18:36:48.673Z,7.00
2023-02-22T18:39:16.577Z,6.88
2023-02-22T18:41:48.881Z,5.35
2023-02-22T18:44:16.874Z,6.07
2023-02-22T18:46:45.362Z,5.25
2023-02-22T18:49:14.521Z,4.70
2023-02-22T18:51:46.082Z,5.30
2023-02-22T18:54:14.144Z,6.20
2023-02-22T18:56:42.429Z,5.93
2023-02-22T18:59:12.589Z,5.15
2023-02-22T19:01:41.867Z,5.00
2023-02-22T19:04:12.864Z,5.72
2023-02-22T19:09:10.724Z,4.60
2023-02-22T19:11:40.859Z,5.03
2023-02-22T19:14:09.656Z,4.75
2023-02-22T19:16:38.331Z,5.25
2023-02-22T19:19:07.564Z,11.00
2023-02-22T19:21:36.612Z,8.07
2023-02-22T19:24:05.650Z,8.23
2023-02-22T19:26:35.625Z,7.30
2023-02-22T19:29:08.499Z,8.30
2023-02-22T19:31:38.898Z,9.70
2023-02-22T19:34:09.593Z,9.02
2023-02-22T19:36:39.447Z,7.93
2023-02-22T19:39:09.762Z,7.38
2023-02-22T19:41:41.287Z,8.73
2023-02-22T19:44:09.412Z,7.05
2023-02-22T19:46:37.852Z,8.73
2023-02-22T19:49:06.356Z,9.68
2023-02-22T19:51:34.691Z,8.45
2023-02-22T19:54:03.640Z,8.45
2023-02-22T19:56:32.337Z,8.68
2023-02-22T20:01:33.453Z,9.35
2023-02-22T20:04:04.405Z,8.27
2023-02-22T20:06:35.134Z,6.90
2023-02-22T20:09:03.907Z,7.30
2023-02-22T20:11:32.157Z,7.07
2023-02-22T20:14:01.207Z,8.25
2023-02-22T20:16:30.488Z,7.35
2023-02-22T20:18:59.976Z,8.98
2023-02-22T20:21:31.055Z,9.07
2023-02-22T20:23:59.432Z,9.13
2023-02-22T20:26:28.544Z,9.45
2023-02-22T20:28:56.956Z,9.20
2023-02-22T20:31:27.853Z,8.85
2023-02-22T20:33:57.093Z,9.10
2023-02-22T20:36:28.458Z,9.60
2023-02-22T20:38:56.987Z,10.25
2023-02-22T20:41:26.255Z,8.65
2023-02-22T20:43:55.479Z,8.77
2023-02-22T20:48:54.967Z,8.45
2023-02-22T20:51:23.257Z,10.00
2023-02-22T20:53:52.910Z,9.90
2023-02-22T20:56:23.169Z,10.90
2023-02-22T20:58:51.785Z,10.50
2023-02-22T21:03:49.817Z,11.00
2023-02-22T21:06:18.810Z,9.40
2023-02-22T21:08:50.613Z,8.88
2023-02-22T21:11:20.806Z,8.70
2023-02-22T21:13:48.837Z,9.63
2023-02-22T21:16:19.566Z,9.52
2023-02-22T21:18:47.747Z,8.20
2023-02-22T21:21:16.508Z,9.15
2023-02-22T21:23:44.670Z,9.27
2023-02-22T21:26:15.740Z,9.63
2023-02-22T21:28:51.242Z,9.65
2023-02-22T21:31:20.739Z,9.38
2023-02-22T21:33:49.772Z,10.68
2023-02-22T21:36:18.291Z,9.35
2023-02-22T21:38:48.468Z,9.85
2023-02-22T21:41:18.011Z,9.35
2023-02-22T21:43:49.845Z,10.88
2023-02-22T21:46:18.408Z,10.27
2023-02-22T21:48:48.931Z,10.85
2023-02-22T21:51:18.216Z,10.70
2023-02-22T21:53:47.041Z,10.20
2023-02-22T21:56:16.505Z,10.75
2023-02-22T21:58:44.589Z,11.48
2023-02-22T22:01:17.571Z,11.35
2023-02-22T22:03:46.316Z,11.93
2023-02-22T22:06:15.078Z,12.90
2023-02-22T22:08:46.143Z,11.85
2023-02-22T22:11:17.872Z,11.85
2023-02-22T22:13:46.096Z,13.30
2023-02-22T22:16:16.800Z,12.13
2023-02-22T22:18:45.839Z,12.52
2023-02-22T22:21:16.656Z,13.27
2023-02-22T22:23:46.762Z,12.13
2023-02-22T22:26:16.453Z,12.23
2023-02-22T22:31:17.560Z,11.35
2023-02-22T22:33:46.303Z,11.52
2023-02-22T22:36:16.701Z,12.00
2023-02-22T22:38:47.052Z,11.43
2023-02-22T22:41:16.156Z,10.85
2023-02-22T22:43:46.264Z,13.50
2023-02-22T22:46:15.406Z,11.32
2023-02-22T22:48:47.486Z,11.45
2023-02-22T22:51:18.439Z,12.25
2023-02-22T22:53:47.827Z,11.00
2023-02-22T22:58:44.478Z,10.93
2023-02-22T23:01:19.275Z,10.73
2023-02-22T23:03:55.102Z,12.32
2023-02-22T23:06:25.970Z,10.82
2023-02-22T23:09:00.084Z,12.07
2023-02-22T23:11:29.115Z,11.38
2023-02-22T23:13:57.628Z,10.93
2023-02-22T23:16:26.230Z,12.38
2023-02-22T23:18:55.934Z,11.90
2023-02-22T23:21:24.438Z,12.02
2023-02-22T23:23:55.749Z,11.63
2023-02-22T23:26:26.864Z,10.38
2023-02-22T23:28:56.181Z,12.48
2023-02-22T23:31:24.911Z,12.20
2023-02-22T23:33:53.052Z,11.60
2023-02-22T23:36:23.027Z,11.18
2023-02-22T23:38:50.988Z,10.82
2023-02-22T23:41:19.545Z,11.10
2023-02-22T23:43:47.599Z,11.85
2023-02-22T23:46:18.579Z,10.70
2023-02-22T23:48:50.707Z,11.50
2023-02-22T23:51:20.994Z,11.35
2023-02-22T23:53:50.382Z,12.48
2023-02-22T23:56:21.984Z,11.45
2023-02-22T23:58:51.908Z,10.90
